Time;durP1;ratioP1;P1;durP2;ratioP2;P2;SDS_P1;SDS_P2;PMS_P1;PMS_P2;Temp;Humidity;BMP_temperature;BMP_pressure;BME280_temperature;BME280_humidity;BME280_pressure;Samples;Min_cycle;Max_cycle;Signal;HPM_P1;HPM_P2
2022/09/13 06:13:08;;;;;;;7.55;2.20;;;;;;;;;;5566089;23;20496;-79
2022/09/13 06:15:34;;;;;;;4.50;1.90;;;;;;;;;;4900727;29;20032;-78
2022/09/13 06:18:01;;;;;;;4.28;1.70;;;;;;;;;;4900880;29;20601;-79
2022/09/13 06:20:27;;;;;;;4.45;1.77;;;;;;;;;;4900624;29;20362;-78
2022/09/13 06:22:53;;;;;;;5.40;2.08;;;;;;;;;;4900456;29;20032;-77
2022/09/13 06:25:19;;;;;;;2.78;1.50;;;;;;;;;;4900802;29;20040;-78
2022/09/13 06:27:45;;;;;;;5.32;1.70;;;;;;;;;;4900521;29;20438;-77
2022/09/13 06:30:14;;;;;;;7.55;1.42;;;;;;;;;;4883646;29;20119;-80
2022/09/13 06:32:40;;;;;;;3.47;1.85;;;;;;;;;;4883296;29;20028;-80
2022/09/13 06:35:07;;;;;;;5.20;1.52;;;;;;;;;;4883558;29;20470;-80
2022/09/13 06:37:33;;;;;;;3.53;1.70;;;;;;;;;;4900150;29;20033;-80
2022/09/13 06:39:59;;;;;;;3.40;1.67;;;;;;;;;;4883345;29;20496;-80
2022/09/13 06:42:25;;;;;;;6.30;1.80;;;;;;;;;;4900491;29;20048;-80
2022/09/13 06:44:51;;;;;;;3.63;1.60;;;;;;;;;;4900147;29;20037;-81
2022/09/13 06:47:17;;;;;;;3.60;1.70;;;;;;;;;;4883340;29;20076;-80
2022/09/13 06:49:43;;;;;;;3.22;1.80;;;;;;;;;;4883300;29;20470;-80
2022/09/13 06:52:09;;;;;;;3.85;1.92;;;;;;;;;;4900036;29;20385;-79
2022/09/13 06:54:35;;;;;;;4.80;1.60;;;;;;;;;;4883178;29;20052;-80
2022/09/13 06:57:02;;;;;;;3.40;1.80;;;;;;;;;;4883180;29;20080;-79
2022/09/13 06:59:28;;;;;;;3.83;2.08;;;;;;;;;;4883032;29;20084;-80
2022/09/13 07:01:54;;;;;;;3.92;1.85;;;;;;;;;;4883067;29;20452;-79
2022/09/13 07:04:21;;;;;;;3.28;1.95;;;;;;;;;;4882950;29;20037;-80
2022/09/13 07:06:48;;;;;;;3.03;1.67;;;;;;;;;;4899891;29;20032;-81
2022/09/13 07:09:16;;;;;;;5.78;1.65;;;;;;;;;;4882928;29;20037;-81
2022/09/13 07:11:43;;;;;;;3.17;1.75;;;;;;;;;;4882807;29;20039;-80
2022/09/13 07:14:13;;;;;;;3.10;1.92;;;;;;;;;;4899531;29;20055;-79
2022/09/13 07:16:39;;;;;;;5.90;2.03;;;;;;;;;;4899559;29;20037;-77
2022/09/13 07:19:07;;;;;;;3.47;1.80;;;;;;;;;;4882771;29;20028;-78
2022/09/13 07:21:37;;;;;;;4.35;1.67;;;;;;;;;;4882688;29;20032;-80
2022/09/13 07:24:03;;;;;;;4.10;1.55;;;;;;;;;;4882603;29;20556;-80
2022/09/13 07:26:30;;;;;;;7.05;1.92;;;;;;;;;;4882584;29;20040;-80
2022/09/13 07:28:58;;;;;;;2.50;1.52;;;;;;;;;;4882457;29;20035;-80
2022/09/13 07:31:25;;;;;;;3.15;1.65;;;;;;;;;;4882545;29;20040;-80
2022/09/13 07:33:55;;;;;;;3.22;1.40;;;;;;;;;;4882445;29;20123;-79
2022/09/13 07:36:22;;;;;;;2.40;1.42;;;;;;;;;;4882460;29;20029;-79
2022/09/13 07:38:48;;;;;;;2.72;1.50;;;;;;;;;;4885687;29;20121;-79
2022/09/13 07:41:16;;;;;;;5.53;1.90;;;;;;;;;;4891143;29;20077;-79
2022/09/13 07:43:42;;;;;;;3.85;1.73;;;;;;;;;;4890294;29;20040;-81
2022/09/13 07:46:11;;;;;;;2.90;1.38;;;;;;;;;;4881729;29;20115;-80
2022/09/13 07:48:39;;;;;;;3.22;1.77;;;;;;;;;;4882289;29;20035;-83
2022/09/13 07:51:06;;;;;;;4.32;1.60;;;;;;;;;;4882252;29;20029;-83
2022/09/13 07:53:33;;;;;;;4.50;2.00;;;;;;;;;;4899224;29;20446;-82
2022/09/13 07:56:00;;;;;;;3.63;1.65;;;;;;;;;;4882174;29;20032;-82
2022/09/13 07:58:26;;;;;;;2.53;1.58;;;;;;;;;;4882012;29;20040;-82
2022/09/13 08:00:52;;;;;;;2.58;1.48;;;;;;;;;;4882043;29;20021;-82
2022/09/13 08:03:19;;;;;;;7.13;1.65;;;;;;;;;;4881938;29;20047;-83
2022/09/13 08:05:45;;;;;;;4.32;1.77;;;;;;;;;;4898758;29;20082;-77
2022/09/13 08:08:11;;;;;;;5.05;1.83;;;;;;;;;;4881961;29;20031;-74
2022/09/13 08:10:37;;;;;;;2.60;1.50;;;;;;;;;;4898671;29;20036;-80
2022/09/13 08:13:03;;;;;;;2.90;1.52;;;;;;;;;;4898687;29;20064;-81
2022/09/13 08:15:30;;;;;;;3.10;1.60;;;;;;;;;;4881782;29;20047;-82
2022/09/13 08:17:56;;;;;;;7.35;1.73;;;;;;;;;;4898577;29;20034;-82
2022/09/13 08:20:22;;;;;;;3.83;1.60;;;;;;;;;;4881713;29;20049;-82
2022/09/13 08:22:48;;;;;;;3.15;1.55;;;;;;;;;;4881580;29;20044;-80
2022/09/13 08:25:14;;;;;;;7.00;1.67;;;;;;;;;;4881726;29;20033;-75
2022/09/13 08:27:40;;;;;;;2.53;1.45;;;;;;;;;;4898476;29;20104;-77
2022/09/13 08:30:06;;;;;;;7.63;1.70;;;;;;;;;;4898410;29;20500;-76
2022/09/13 08:32:32;;;;;;;4.93;1.80;;;;;;;;;;4881533;29;20024;-75
2022/09/13 08:34:58;;;;;;;6.93;1.90;;;;;;;;;;4883538;29;20216;-76
2022/09/13 08:37:25;;;;;;;2.78;1.48;;;;;;;;;;4881570;29;20037;-77
2022/09/13 08:39:51;;;;;;;4.03;1.58;;;;;;;;;;4881440;29;20363;-81
2022/09/13 08:42:25;;;;;;;3.65;1.55;;;;;;;;;;4898477;29;20032;-82
2022/09/13 08:44:55;;;;;;;2.50;1.50;;;;;;;;;;4881363;29;20043;-81
2022/09/13 08:47:21;;;;;;;2.72;1.67;;;;;;;;;;4881449;29;20050;-81
2022/09/13 08:49:49;;;;;;;4.00;1.20;;;;;;;;;;4881402;29;20047;-81
2022/09/13 08:52:15;;;;;;;2.67;1.40;;;;;;;;;;4881341;29;20040;-81
2022/09/13 08:54:41;;;;;;;2.55;1.40;;;;;;;;;;4881339;29;20033;-82
2022/09/13 08:57:08;;;;;;;2.30;1.35;;;;;;;;;;4884072;29;20040;-82
2022/09/13 08:59:34;;;;;;;2.88;1.48;;;;;;;;;;4885215;29;20028;-82
2022/09/13 09:02:03;;;;;;;2.30;1.40;;;;;;;;;;4885244;29;20032;-82
2022/09/13 09:04:29;;;;;;;2.35;1.40;;;;;;;;;;4885073;29;20048;-81
2022/09/13 09:07:02;;;;;;;4.00;1.42;;;;;;;;;;4885191;29;20116;-82
2022/09/13 09:09:29;;;;;;;2.58;1.33;;;;;;;;;;4901947;29;20040;-82
2022/09/13 09:12:11;;;;;;;3.15;1.10;;;;;;;;;;4885012;29;20119;-80
2022/09/13 09:14:43;;;;;;;3.05;1.38;;;;;;;;;;4905312;29;20044;-81
2022/09/13 09:17:38;;;;;;;5.43;1.40;;;;;;;;;;4920675;29;20028;-81
2022/09/13 09:20:23;;;;;;;3.13;1.38;;;;;;;;;;4891765;29;20084;-80
2022/09/13 09:22:51;;;;;;;5.07;1.02;;;;;;;;;;4903358;29;20035;-78
2022/09/13 09:25:17;;;;;;;3.10;1.15;;;;;;;;;;4920166;29;20482;-80
2022/09/13 09:27:43;;;;;;;3.17;1.30;;;;;;;;;;4920422;29;20028;-81
2022/09/13 09:30:13;;;;;;;3.97;1.30;;;;;;;;;;4903480;29;20086;-80
2022/09/13 09:32:47;;;;;;;3.70;1.27;;;;;;;;;;4920389;29;20038;-80
2022/09/13 09:35:32;;;;;;;8.82;0.93;;;;;;;;;;4920085;29;20047;-79
2022/09/13 09:38:27;;;;;;;2.42;0.80;;;;;;;;;;4912425;29;20063;-81
2022/09/13 09:40:53;;;;;;;4.28;1.08;;;;;;;;;;4881068;29;20041;-80
2022/09/13 09:43:32;;;;;;;5.53;1.20;;;;;;;;;;4884522;29;20041;-81
2022/09/13 09:45:59;;;;;;;2.38;1.13;;;;;;;;;;4901544;29;20494;-81
2022/09/13 09:48:28;;;;;;;2.63;1.20;;;;;;;;;;4884421;29;20092;-82
2022/09/13 09:50:57;;;;;;;2.70;0.90;;;;;;;;;;4884455;29;20112;-82
2022/09/13 09:53:33;;;;;;;8.10;1.08;;;;;;;;;;4901182;29;20562;-83
2022/09/13 09:56:01;;;;;;;2.30;0.70;;;;;;;;;;4884277;29;20029;-82
2022/09/13 09:58:36;;;;;;;3.65;1.10;;;;;;;;;;4884275;29;20021;-82
2022/09/13 10:01:04;;;;;;;1.85;0.90;;;;;;;;;;4884234;29;20085;-83
2022/09/13 10:03:32;;;;;;;4.32;0.73;;;;;;;;;;4900933;29;20032;-82
2022/09/13 10:06:05;;;;;;;1.60;0.80;;;;;;;;;;4884187;29;20073;-81
2022/09/13 10:08:33;;;;;;;3.35;1.20;;;;;;;;;;4883301;29;20185;-80
2022/09/13 10:11:00;;;;;;;5.18;1.10;;;;;;;;;;4884065;29;20032;-81
2022/09/13 10:31:30;;;;;;;1.58;0.93;;;;;;;;;;4897585;29;20615;-82
2022/09/13 10:33:57;;;;;;;2.00;0.90;;;;;;;;;;4883429;29;20047;-83
2022/09/13 10:36:30;;;;;;;1.98;1.05;;;;;;;;;;4883733;29;20385;-83
2022/09/13 10:38:59;;;;;;;2.38;1.17;;;;;;;;;;4900368;29;20386;-81
2022/09/13 10:41:30;;;;;;;2.80;1.30;;;;;;;;;;4883485;29;20382;-80
2022/09/13 10:43:57;;;;;;;2.47;1.10;;;;;;;;;;4900215;29;20115;-80
2022/09/13 10:46:23;;;;;;;6.97;1.05;;;;;;;;;;4883400;29;20602;-80
2022/09/13 10:48:55;;;;;;;2.15;1.00;;;;;;;;;;4900184;29;20477;-79
2022/09/13 10:51:29;;;;;;;6.97;1.33;;;;;;;;;;4883316;29;20025;-79
2022/09/13 10:54:14;;;;;;;5.97;1.17;;;;;;;;;;4883251;29;20032;-77
2022/09/13 10:56:42;;;;;;;3.30;1.00;;;;;;;;;;4900051;29;20076;-87
2022/09/13 10:59:27;;;;;;;5.10;1.38;;;;;;;;;;4900266;29;20488;-79
2022/09/13 11:02:23;;;;;;;2.50;1.40;;;;;;;;;;4883294;29;20025;-83
2022/09/13 11:04:52;;;;;;;2.17;1.25;;;;;;;;;;4865397;29;20081;-82
2022/09/13 11:07:30;;;;;;;3.53;1.13;;;;;;;;;;4882966;29;20439;-83
2022/09/13 11:10:07;;;;;;;6.43;1.10;;;;;;;;;;4882822;29;20088;-82
2022/09/13 11:12:40;;;;;;;3.03;1.15;;;;;;;;;;4882841;29;20021;-84
2022/09/13 11:15:18;;;;;;;2.60;1.02;;;;;;;;;;4882704;29;20474;-82
2022/09/13 11:17:59;;;;;;;2.95;1.30;;;;;;;;;;4899522;29;20032;-81
2022/09/13 11:20:28;;;;;;;5.57;1.27;;;;;;;;;;4881669;29;20035;-84
2022/09/13 11:23:27;;;;;;;3.97;1.40;;;;;;;;;;4882437;29;20037;-82
2022/09/13 11:26:12;;;;;;;2.30;1.25;;;;;;;;;;4872178;29;20045;-83
2022/09/13 11:28:38;;;;;;;2.03;1.10;;;;;;;;;;4882482;29;20037;-81
2022/09/13 11:31:04;;;;;;;4.15;1.55;;;;;;;;;;4883532;29;20028;-84
2022/09/13 11:33:39;;;;;;;2.10;1.15;;;;;;;;;;4888317;29;20512;-84
2022/09/13 11:36:29;;;;;;;3.38;1.45;;;;;;;;;;4883200;29;20033;-90
2022/09/13 11:39:02;;;;;;;3.88;1.40;;;;;;;;;;4882393;29;20029;-84
2022/09/13 11:41:43;;;;;;;3.35;1.45;;;;;;;;;;4882477;29;20025;-81
2022/09/13 11:44:28;;;;;;;5.03;1.70;;;;;;;;;;4898993;29;20443;-83
2022/09/13 11:47:26;;;;;;;7.90;1.50;;;;;;;;;;4882176;29;20029;-81
2022/09/13 11:49:57;;;;;;;2.33;1.60;;;;;;;;;;4832197;29;20378;-85
2022/09/13 11:52:42;;;;;;;5.15;1.50;;;;;;;;;;4882304;29;20445;-84
2022/09/13 11:55:11;;;;;;;3.30;1.73;;;;;;;;;;4899017;29;20025;-84
2022/09/13 11:57:40;;;;;;;3.35;1.70;;;;;;;;;;4899116;29;20031;-83
2022/09/13 12:00:14;;;;;;;3.22;1.42;;;;;;;;;;4882079;29;20108;-81
2022/09/13 12:03:01;;;;;;;2.63;1.50;;;;;;;;;;4882078;29;20029;-82
2022/09/13 12:05:30;;;;;;;3.85;1.60;;;;;;;;;;4881811;29;20063;-81
2022/09/13 12:08:26;;;;;;;3.58;1.80;;;;;;;;;;4882018;29;20024;-84
2022/09/13 12:10:56;;;;;;;10.13;2.15;;;;;;;;;;4862879;29;20124;-83
2022/09/13 12:13:25;;;;;;;2.80;1.45;;;;;;;;;;4881755;29;20028;-83
2022/09/13 12:16:04;;;;;;;6.63;1.50;;;;;;;;;;4881766;29;20032;-83
2022/09/13 12:18:34;;;;;;;2.00;1.30;;;;;;;;;;4881704;29;20024;-81
2022/09/13 12:21:11;;;;;;;4.28;1.80;;;;;;;;;;4881670;29;20498;-83
2022/09/13 12:23:41;;;;;;;3.92;1.80;;;;;;;;;;4881622;29;20043;-81
2022/09/13 12:26:10;;;;;;;2.78;1.58;;;;;;;;;;4881661;29;20040;-83
2022/09/13 12:28:51;;;;;;;3.95;1.85;;;;;;;;;;4898429;29;20031;-83
2022/09/13 12:31:22;;;;;;;4.03;1.60;;;;;;;;;;4898383;29;20111;-81
2022/09/13 12:33:49;;;;;;;3.17;1.35;;;;;;;;;;4881545;29;20126;-84
2022/09/13 12:36:33;;;;;;;10.20;1.70;;;;;;;;;;4898451;29;20029;-82
2022/09/13 12:39:19;;;;;;;3.88;1.88;;;;;;;;;;4881390;29;20260;-82
2022/09/13 12:42:05;;;;;;;3.47;1.60;;;;;;;;;;4881624;29;20075;-83
2022/09/13 12:44:34;;;;;;;2.40;1.50;;;;;;;;;;4881087;29;20540;-80
2022/09/13 12:47:23;;;;;;;2.80;1.67;;;;;;;;;;4898067;29;20031;-81
2022/09/13 12:50:16;;;;;;;6.25;1.70;;;;;;;;;;4881389;29;20040;-81
2022/09/13 12:52:51;;;;;;;3.13;1.60;;;;;;;;;;4896210;29;20076;-81
2022/09/13 12:55:30;;;;;;;4.05;1.80;;;;;;;;;;4881340;29;20124;-80
2022/09/13 12:57:56;;;;;;;5.47;1.70;;;;;;;;;;4881354;29;20131;-82
2022/09/13 13:00:23;;;;;;;5.10;1.60;;;;;;;;;;4881174;29;20021;-79
2022/09/13 13:02:49;;;;;;;2.97;1.80;;;;;;;;;;4881078;29;20033;-79
2022/09/13 13:05:36;;;;;;;3.03;1.38;;;;;;;;;;4881257;29;20029;-84
2022/09/13 13:08:04;;;;;;;3.53;1.63;;;;;;;;;;4880473;29;20028;-81
2022/09/13 13:10:35;;;;;;;2.72;1.52;;;;;;;;;;4897648;29;20025;-81
2022/09/13 13:13:19;;;;;;;2.78;1.67;;;;;;;;;;4897879;29;20029;-83
2022/09/13 13:15:45;;;;;;;3.15;1.55;;;;;;;;;;4898820;29;20072;-81
2022/09/13 13:18:28;;;;;;;6.03;1.77;;;;;;;;;;4881062;29;20039;-81
2022/09/13 13:20:54;;;;;;;;;;;;;;;;;;4881531;29;20039;-85
2022/09/13 13:23:26;;;;;;;2.33;1.30;;;;;;;;;;4881209;29;19915;-85
2022/09/13 13:25:59;;;;;;;4.90;1.73;;;;;;;;;;4881289;29;20084;-86
2022/09/13 13:28:44;;;;;;;2.85;1.67;;;;;;;;;;4881248;29;20063;-83
2022/09/13 13:31:29;;;;;;;4.10;1.67;;;;;;;;;;4881202;29;20029;-85
2022/09/13 13:33:58;;;;;;;4.82;1.95;;;;;;;;;;4880931;29;20043;-85
2022/09/13 13:36:27;;;;;;;3.22;1.90;;;;;;;;;;4881093;29;20028;-85
2022/09/13 13:38:54;;;;;;;3.90;1.50;;;;;;;;;;4881134;29;20063;-84
2022/09/13 13:41:32;;;;;;;2.72;1.70;;;;;;;;;;4881176;29;20541;-83
2022/09/13 13:44:21;;;;;;;2.60;1.70;;;;;;;;;;4883241;29;20067;-85
2022/09/13 13:46:50;;;;;;;3.22;1.60;;;;;;;;;;4901335;29;20029;-85
2022/09/13 13:49:29;;;;;;;4.57;1.77;;;;;;;;;;4884447;29;20035;-87
2022/09/13 13:52:07;;;;;;;4.43;1.90;;;;;;;;;;4884530;29;20092;-86
2022/09/13 13:54:48;;;;;;;4.03;1.63;;;;;;;;;;4884563;29;20517;-86
2022/09/13 13:57:20;;;;;;;4.85;1.92;;;;;;;;;;4884495;29;20056;-84
2022/09/13 13:59:47;;;;;;;3.23;1.80;;;;;;;;;;4884570;29;20416;-86
2022/09/13 14:02:14;;;;;;;3.88;1.83;;;;;;;;;;4884388;29;20051;-85
2022/09/13 14:05:03;;;;;;;3.28;1.80;;;;;;;;;;4884397;29;20399;-91
2022/09/13 14:07:45;;;;;;;3.72;1.65;;;;;;;;;;4858455;29;20044;-85
2022/09/13 14:10:20;;;;;;;3.05;1.77;;;;;;;;;;4900823;29;20032;-85
2022/09/13 14:12:53;;;;;;;2.85;1.88;;;;;;;;;;4901129;29;20037;-84
2022/09/13 14:15:19;;;;;;;4.30;1.85;;;;;;;;;;4901148;29;20033;-85
2022/09/13 14:18:21;;;;;;;3.80;2.00;;;;;;;;;;4884138;29;20489;-85
2022/09/13 14:20:57;;;;;;;7.32;1.90;;;;;;;;;;4809868;29;20034;-86
2022/09/13 14:23:23;;;;;;;5.32;1.80;;;;;;;;;;4889849;29;20071;-88
2022/09/13 14:25:56;;;;;;;2.70;1.70;;;;;;;;;;4891553;29;20028;-89
2022/09/13 14:28:23;;;;;;;5.07;2.08;;;;;;;;;;4897222;29;20083;-90
2022/09/13 14:30:53;;;;;;;8.85;1.90;;;;;;;;;;4886048;29;20033;-89
2022/09/13 14:33:29;;;;;;;5.28;1.63;;;;;;;;;;4884431;29;20100;-87
2022/09/13 14:35:57;;;;;;;4.97;1.88;;;;;;;;;;4884326;29;20112;-89
2022/09/13 14:38:25;;;;;;;5.32;1.45;;;;;;;;;;4884271;29;20032;-87
2022/09/13 14:40:53;;;;;;;2.03;1.30;;;;;;;;;;4883796;29;20028;-91
2022/09/13 14:43:21;;;;;;;3.70;1.90;;;;;;;;;;4884021;29;20044;-85
2022/09/13 14:45:49;;;;;;;3.15;1.75;;;;;;;;;;4883831;29;20486;-88
2022/09/13 14:48:26;;;;;;;5.32;1.90;;;;;;;;;;4884001;29;20040;-85
2022/09/13 14:50:56;;;;;;;3.38;1.70;;;;;;;;;;4883996;29;20029;-90
2022/09/13 14:53:27;;;;;;;8.38;1.70;;;;;;;;;;4884475;29;20108;-90
2022/09/13 14:55:55;;;;;;;3.13;1.70;;;;;;;;;;4884338;29;20036;-87
2022/09/13 14:58:26;;;;;;;2.78;1.60;;;;;;;;;;4883884;29;20035;-86
2022/09/13 15:00:56;;;;;;;5.90;1.70;;;;;;;;;;4884171;29;20029;-85
2022/09/13 15:03:22;;;;;;;7.45;2.35;;;;;;;;;;4883672;29;20064;-84
2022/09/13 15:05:53;;;;;;;4.38;1.85;;;;;;;;;;4883734;29;20100;-91
2022/09/13 15:08:34;;;;;;;3.40;1.50;;;;;;;;;;4884122;29;20038;-90
2022/09/13 15:11:01;;;;;;;2.85;1.33;;;;;;;;;;4883907;29;20028;-89
2022/09/13 15:13:27;;;;;;;2.70;1.58;;;;;;;;;;4884070;29;20021;-87
2022/09/13 15:15:54;;;;;;;22.05;2.55;;;;;;;;;;4883860;29;20033;-87
2022/09/13 15:18:22;;;;;;;3.70;1.40;;;;;;;;;;4885824;29;20035;-84
2022/09/13 15:20:48;;;;;;;2.78;1.27;;;;;;;;;;4894544;29;20029;-89
2022/09/13 15:23:16;;;;;;;3.35;1.58;;;;;;;;;;4902305;29;20341;-88
2022/09/13 15:25:47;;;;;;;5.03;1.63;;;;;;;;;;4919045;29;20034;-85
2022/09/13 15:28:20;;;;;;;4.07;1.70;;;;;;;;;;4901937;29;20028;-87
2022/09/13 15:30:46;;;;;;;2.20;1.20;;;;;;;;;;4901954;29;20028;-89
2022/09/13 15:33:12;;;;;;;3.60;1.08;;;;;;;;;;4918965;29;20553;-91
2022/09/13 15:35:40;;;;;;;2.58;1.23;;;;;;;;;;4902634;29;20028;-85
2022/09/13 15:38:17;;;;;;;2.97;1.30;;;;;;;;;;4919295;29;20088;-86
2022/09/13 15:40:45;;;;;;;4.70;1.52;;;;;;;;;;4901976;29;20024;-94
2022/09/13 15:43:11;;;;;;;3.45;1.48;;;;;;;;;;4901943;29;20035;-87
2022/09/13 15:45:37;;;;;;;3.65;1.40;;;;;;;;;;4902181;29;20052;-93
2022/09/13 15:48:04;;;;;;;5.32;1.63;;;;;;;;;;4902170;29;20029;-86
2022/09/13 15:50:32;;;;;;;2.40;1.48;;;;;;;;;;4902023;29;20245;-93
2022/09/13 15:52:58;;;;;;;1.88;1.10;;;;;;;;;;4901942;29;20028;-93
2022/09/13 15:55:25;;;;;;;3.50;1.23;;;;;;;;;;4901896;29;20070;-86
2022/09/13 15:57:52;;;;;;;3.63;1.35;;;;;;;;;;4902024;29;20489;-85
2022/09/13 16:00:23;;;;;;;3.63;1.20;;;;;;;;;;4901349;29;20179;-90
2022/09/13 16:02:49;;;;;;;2.70;1.50;;;;;;;;;;4902209;29;20035;-84
2022/09/13 16:05:15;;;;;;;6.25;1.58;;;;;;;;;;4917464;29;20366;-79
2022/09/13 16:07:42;;;;;;;4.65;1.30;;;;;;;;;;4901500;29;20119;-83
2022/09/13 16:10:21;;;;;;;2.63;1.40;;;;;;;;;;4900559;29;20065;-78
2022/09/13 16:12:48;;;;;;;2.53;1.40;;;;;;;;;;4900578;29;20618;-82
2022/09/13 16:15:14;;;;;;;3.60;1.52;;;;;;;;;;4884185;29;20024;-79
2022/09/13 16:17:40;;;;;;;11.52;3.38;;;;;;;;;;4880760;29;20036;-79
2022/09/13 16:20:07;;;;;;;22.63;5.32;;;;;;;;;;4881873;29;20033;-79
2022/09/13 16:22:35;;;;;;;56.92;13.13;;;;;;;;;;4881916;29;20123;-80
2022/09/13 16:25:02;;;;;;;11.57;4.15;;;;;;;;;;4882585;29;20051;-86
2022/09/13 16:27:28;;;;;;;10.27;1.67;;;;;;;;;;4882409;29;20529;-84
2022/09/13 16:29:55;;;;;;;27.02;6.40;;;;;;;;;;4883578;29;20040;-81
2022/09/13 16:32:24;;;;;;;4.45;2.28;;;;;;;;;;4898597;29;20115;-90
2022/09/13 16:38:36;;;;;;;5.43;2.00;;;;;;;;;;4860163;29;20128;-83
2022/09/13 16:41:14;;;;;;;5.13;1.90;;;;;;;;;;4843751;29;20137;-83
2022/09/13 16:43:40;;;;;;;2.85;1.98;;;;;;;;;;4843691;29;20045;-83
2022/09/13 16:46:10;;;;;;;6.72;1.98;;;;;;;;;;4843620;29;20029;-86
2022/09/13 16:48:36;;;;;;;10.68;1.83;;;;;;;;;;4844514;29;20029;-88
2022/09/13 16:51:03;;;;;;;10.75;2.28;;;;;;;;;;4844616;29;20041;-85
2022/09/13 16:53:32;;;;;;;2.88;1.70;;;;;;;;;;4844384;29;20613;-87
2022/09/13 16:56:05;;;;;;;6.57;1.90;;;;;;;;;;4843674;29;20448;-88
2022/09/13 16:58:31;;;;;;;;;;;;;;;;;;4844811;29;20113;-86
2022/09/13 17:00:57;;;;;;;5.22;2.22;;;;;;;;;;4844372;29;20293;-82
2022/09/13 17:03:23;;;;;;;10.18;2.20;;;;;;;;;;4840426;29;20049;-86
2022/09/13 17:06:02;;;;;;;5.38;2.10;;;;;;;;;;4826084;29;20026;-89
2022/09/13 17:08:28;;;;;;;3.25;1.70;;;;;;;;;;4825974;29;20068;-86
2022/09/13 17:10:54;;;;;;;6.90;1.75;;;;;;;;;;4825792;29;20030;-86
2022/09/13 17:13:23;;;;;;;3.30;1.80;;;;;;;;;;4826137;29;20033;-92
2022/09/13 17:15:50;;;;;;;6.70;1.73;;;;;;;;;;4826633;29;20507;-88
2022/09/13 17:18:16;;;;;;;6.63;1.67;;;;;;;;;;4832845;29;20022;-84
2022/09/13 17:20:46;;;;;;;4.65;2.00;;;;;;;;;;4836264;29;20026;-83
2022/09/13 17:23:12;;;;;;;9.68;1.73;;;;;;;;;;4867015;29;20037;-90
2022/09/13 17:25:42;;;;;;;3.22;1.75;;;;;;;;;;4866690;29;20032;-81
2022/09/13 17:28:08;;;;;;;3.83;1.92;;;;;;;;;;4866158;29;20036;-81
2022/09/13 17:30:34;;;;;;;3.33;1.77;;;;;;;;;;4866189;29;20160;-83
2022/09/13 17:33:01;;;;;;;4.28;1.80;;;;;;;;;;4865914;29;20045;-83
2022/09/13 17:35:28;;;;;;;4.22;1.63;;;;;;;;;;4866184;29;20133;-83
2022/09/13 17:37:54;;;;;;;3.17;1.80;;;;;;;;;;4882912;29;20453;-84
2022/09/13 17:40:20;;;;;;;6.50;2.08;;;;;;;;;;4874234;29;20039;-84
2022/09/13 17:42:47;;;;;;;5.30;1.60;;;;;;;;;;4904370;29;20059;-87
2022/09/13 17:45:14;;;;;;;3.47;1.90;;;;;;;;;;4920203;29;20477;-76
2022/09/13 17:47:40;;;;;;;4.03;1.70;;;;;;;;;;4903505;29;20032;-79
2022/09/13 17:50:06;;;;;;;3.47;2.00;;;;;;;;;;4903254;29;20477;-74
2022/09/13 17:52:32;;;;;;;2.67;1.83;;;;;;;;;;4920095;29;20024;-75
2022/09/13 17:54:59;;;;;;;6.05;2.05;;;;;;;;;;4902947;29;20382;-76
2022/09/13 17:57:27;;;;;;;6.20;2.05;;;;;;;;;;4903153;29;20071;-76
2022/09/13 17:59:53;;;;;;;4.05;2.15;;;;;;;;;;4903189;29;20397;-86
2022/09/13 18:02:24;;;;;;;3.95;1.83;;;;;;;;;;4903026;29;20062;-80
2022/09/13 18:04:51;;;;;;;4.47;1.63;;;;;;;;;;4902442;29;20079;-77
2022/09/13 18:07:17;;;;;;;3.70;2.10;;;;;;;;;;4903392;29;20024;-80
2022/09/13 18:09:43;;;;;;;6.47;2.33;;;;;;;;;;4900753;29;20389;-77
2022/09/13 18:12:10;;;;;;;6.00;2.70;;;;;;;;;;4900596;29;20054;-79
2022/09/13 18:14:36;;;;;;;6.75;2.78;;;;;;;;;;4883695;29;20080;-79
2022/09/13 18:17:09;;;;;;;5.75;2.47;;;;;;;;;;4883901;29;20048;-82
2022/09/13 18:19:35;;;;;;;8.27;2.80;;;;;;;;;;4883781;29;20032;-81
2022/09/13 18:22:01;;;;;;;5.50;2.30;;;;;;;;;;4883483;29;20028;-80
2022/09/13 18:24:28;;;;;;;7.25;2.60;;;;;;;;;;4900410;29;20075;-81
2022/09/13 18:26:54;;;;;;;10.82;2.67;;;;;;;;;;4883470;29;20047;-79
2022/09/13 18:29:20;;;;;;;5.28;2.38;;;;;;;;;;4900203;29;20490;-79
2022/09/13 18:31:46;;;;;;;5.28;2.50;;;;;;;;;;4883369;29;20044;-81
2022/09/13 18:34:13;;;;;;;5.03;2.58;;;;;;;;;;4883203;29;20024;-79
2022/09/13 18:36:40;;;;;;;5.28;2.80;;;;;;;;;;4883272;29;20170;-77
2022/09/13 18:39:07;;;;;;;5.60;2.42;;;;;;;;;;4883486;29;20505;-79
2022/09/13 18:41:34;;;;;;;6.03;2.42;;;;;;;;;;4899911;29;20084;-81
2022/09/13 18:44:01;;;;;;;3.90;2.30;;;;;;;;;;4883687;29;20056;-82
2022/09/13 18:46:29;;;;;;;4.90;2.80;;;;;;;;;;4883210;29;20028;-77
2022/09/13 18:48:56;;;;;;;5.80;3.00;;;;;;;;;;4900639;29;20029;-79
2022/09/13 18:51:24;;;;;;;5.82;2.58;;;;;;;;;;4883616;29;20399;-82
2022/09/13 18:53:50;;;;;;;8.35;3.20;;;;;;;;;;4882010;29;20029;-78
2022/09/13 18:56:18;;;;;;;7.07;2.60;;;;;;;;;;4900182;29;20040;-76
2022/09/13 18:58:44;;;;;;;6.70;3.33;;;;;;;;;;4899982;29;20017;-77
2022/09/13 19:01:12;;;;;;;6.85;3.40;;;;;;;;;;4883473;29;20036;-77
2022/09/13 19:03:38;;;;;;;4.43;2.97;;;;;;;;;;4883710;29;20486;-78
2022/09/13 19:06:11;;;;;;;5.82;3.03;;;;;;;;;;4890635;29;20036;-77
2022/09/13 19:08:37;;;;;;;6.63;3.63;;;;;;;;;;4919190;29;20028;-75
2022/09/13 19:11:03;;;;;;;9.43;3.60;;;;;;;;;;4889505;29;20363;-78
2022/09/13 19:13:29;;;;;;;7.63;3.08;;;;;;;;;;4899560;29;20151;-82
2022/09/13 19:15:59;;;;;;;5.45;3.03;;;;;;;;;;4883074;29;20469;-76
2022/09/13 19:18:25;;;;;;;9.02;3.70;;;;;;;;;;4883027;29;20511;-75
2022/09/13 19:20:52;;;;;;;6.95;3.50;;;;;;;;;;4899824;29;20076;-78
2022/09/13 19:23:18;;;;;;;7.28;3.13;;;;;;;;;;4900142;29;20083;-79
2022/09/13 19:25:44;;;;;;;5.53;2.88;;;;;;;;;;4883565;29;20525;-79
2022/09/13 19:28:10;;;;;;;3.90;2.78;;;;;;;;;;4910368;29;20032;-77
2022/09/13 19:30:37;;;;;;;5.75;2.72;;;;;;;;;;4881568;29;20127;-79
2022/09/13 19:33:03;;;;;;;7.05;3.20;;;;;;;;;;4881671;29;20049;-77
2022/09/13 19:35:29;;;;;;;5.75;3.13;;;;;;;;;;4882243;29;20123;-78
2022/09/13 19:37:55;;;;;;;5.57;3.40;;;;;;;;;;4882251;29;20032;-79
2022/09/13 19:40:21;;;;;;;5.60;3.30;;;;;;;;;;4881608;29;20031;-81
2022/09/13 19:42:48;;;;;;;5.72;2.83;;;;;;;;;;4899102;29;20037;-81
2022/09/13 19:45:14;;;;;;;4.88;3.13;;;;;;;;;;4898731;29;20394;-82
2022/09/13 19:47:41;;;;;;;5.50;2.92;;;;;;;;;;4882025;29;20033;-76
2022/09/13 19:50:07;;;;;;;4.82;3.05;;;;;;;;;;4882275;29;20485;-77
2022/09/13 19:52:33;;;;;;;4.78;3.13;;;;;;;;;;4899382;29;20100;-77
2022/09/13 19:55:00;;;;;;;6.32;3.25;;;;;;;;;;4899601;29;20516;-77
2022/09/13 19:57:26;;;;;;;4.88;2.72;;;;;;;;;;4882755;29;20028;-81
2022/09/13 19:59:52;;;;;;;4.88;3.10;;;;;;;;;;4882855;29;20060;-80
2022/09/13 20:02:18;;;;;;;6.00;2.83;;;;;;;;;;4882251;29;20068;-77
2022/09/13 20:04:45;;;;;;;9.40;3.03;;;;;;;;;;4882654;29;20043;-78
2022/09/13 20:07:13;;;;;;;4.53;3.05;;;;;;;;;;4910624;29;20031;-78
2022/09/13 20:09:41;;;;;;;8.48;3.20;;;;;;;;;;4882650;29;20029;-80
2022/09/13 20:12:07;;;;;;;3.88;2.78;;;;;;;;;;4882608;29;20020;-79
2022/09/13 20:14:34;;;;;;;6.35;3.63;;;;;;;;;;4898695;29;20021;-77
2022/09/13 20:17:01;;;;;;;6.05;2.90;;;;;;;;;;4899092;29;20033;-76
2022/09/13 20:19:27;;;;;;;6.05;3.05;;;;;;;;;;4881905;29;20112;-78
2022/09/13 20:21:53;;;;;;;8.93;3.13;;;;;;;;;;4898806;29;20044;-78
2022/09/13 20:24:19;;;;;;;4.43;2.78;;;;;;;;;;4898487;29;20047;-78
2022/09/13 20:26:46;;;;;;;5.35;2.83;;;;;;;;;;4881667;29;20029;-76
2022/09/13 20:29:13;;;;;;;4.70;2.80;;;;;;;;;;4898841;29;20079;-76
2022/09/13 20:31:40;;;;;;;4.32;3.10;;;;;;;;;;4898210;29;20048;-78
2022/09/13 20:34:07;;;;;;;8.70;2.85;;;;;;;;;;4898609;29;20056;-77
2022/09/13 20:36:35;;;;;;;6.10;3.20;;;;;;;;;;4898575;29;20080;-77
2022/09/13 20:39:02;;;;;;;4.68;2.85;;;;;;;;;;4898470;29;20035;-77
2022/09/13 20:41:29;;;;;;;6.50;3.10;;;;;;;;;;4898652;29;20112;-77
2022/09/13 20:43:57;;;;;;;4.45;2.95;;;;;;;;;;4898304;29;20035;-78
2022/09/13 20:46:23;;;;;;;4.80;3.20;;;;;;;;;;4881455;29;20107;-78
2022/09/13 20:48:49;;;;;;;5.40;3.28;;;;;;;;;;4881352;29;20031;-79
2022/09/13 20:51:24;;;;;;;4.78;2.92;;;;;;;;;;4898422;29;20080;-79
2022/09/13 20:53:59;;;;;;;5.25;2.83;;;;;;;;;;4881462;29;20040;-78
2022/09/13 20:56:25;;;;;;;4.53;2.80;;;;;;;;;;4881418;29;20036;-78
2022/09/13 20:58:53;;;;;;;5.07;3.00;;;;;;;;;;4881372;29;20028;-78
2022/09/13 21:01:19;;;;;;;5.35;3.10;;;;;;;;;;4898412;29;20028;-78
2022/09/13 21:03:48;;;;;;;9.93;3.00;;;;;;;;;;4881785;29;20234;-79
2022/09/13 21:06:15;;;;;;;8.13;3.40;;;;;;;;;;4881241;29;20043;-78
2022/09/13 21:08:41;;;;;;;4.47;3.10;;;;;;;;;;4898280;29;20028;-79
2022/09/13 21:11:12;;;;;;;8.60;3.25;;;;;;;;;;4881226;29;20083;-79
2022/09/13 21:13:41;;;;;;;10.80;3.72;;;;;;;;;;4881229;29;20103;-79
2022/09/13 21:16:08;;;;;;;10.70;3.00;;;;;;;;;;4881178;29;20036;-78
2022/09/13 21:18:34;;;;;;;4.20;2.70;;;;;;;;;;4881062;29;20478;-79
2022/09/13 21:21:01;;;;;;;5.45;2.80;;;;;;;;;;4897903;29;20060;-79
2022/09/13 21:23:29;;;;;;;6.43;3.10;;;;;;;;;;4880977;29;20123;-79
2022/09/13 21:25:56;;;;;;;5.40;3.10;;;;;;;;;;4881144;29;20098;-79
2022/09/13 21:28:22;;;;;;;5.93;2.75;;;;;;;;;;4881063;29;20434;-77
2022/09/13 21:31:02;;;;;;;5.15;2.97;;;;;;;;;;4881106;29;20033;-79
2022/09/13 21:33:29;;;;;;;6.80;2.92;;;;;;;;;;4880879;29;20048;-79